| time (UTC) | temp F | wind direction | speed MPH | gust MPH | rain 1hr in | rain 24hr in | rain mn in | humidity % | barometer mb |
| 20260510030704 | 53 | 271 | 0.0 | 0.0 | 0.00 | 0.26 | 0.26 | 97 | 1035.9 |
| 20260510025704 | 53 | 271 | 0.0 | 0.0 | 0.00 | 0.26 | 0.26 | 97 | 1035.4 |
| 20260510024704 | 53 | 271 | 0.0 | 0.0 | 0.00 | 0.26 | 0.26 | 98 | 1035.5 |
| 20260510024205 | 53 | 271 | 0.0 | 0.0 | 0.00 | 0.26 | 0.26 | 98 | 1035.6 |
| 20260510023705 | 53 | 271 | 0.0 | 0.0 | 0.00 | 0.26 | 0.26 | 97 | 1035.8 |
| 20260510023205 | 53 | 271 | 0.0 | 0.0 | 0.00 | 0.26 | 0.26 | 98 | 1035.8 |
| 20260510022705 | 54 | 271 | 0.0 | 0.0 | 0.00 | 0.26 | 0.26 | 98 | 1035.8 |
| 20260510021705 | 54 | 271 | 0.0 | 0.0 | 0.00 | 0.26 | 0.26 | 98 | 1035.8 |
| 20260510020705 | 54 | 271 | 0.0 | 0.0 | 0.00 | 0.26 | 0.26 | 98 | 1035.8 |
| 20260510020204 | 54 | 271 | 0.0 | 0.0 | 0.00 | 0.26 | 0.26 | 98 | 1035.8 |
| 20260510015704 | 54 | 271 | 0.0 | 0.0 | 0.00 | 0.26 | 0.26 | 98 | 1035.8 |
| 20260510015205 | 54 | 271 | 0.0 | 0.0 | 0.00 | 0.26 | 0.26 | 98 | 1035.7 |
| 20260510014704 | 54 | 271 | 0.0 | 0.0 | 0.00 | 0.26 | 0.26 | 98 | 1035.6 |
| 20260510014205 | 54 | 271 | 0.0 | 0.0 | 0.00 | 0.27 | 0.26 | 98 | 1035.5 |
| 20260510013705 | 55 | 271 | 0.0 | 0.0 | 0.00 | 0.27 | 0.26 | 98 | 1035.4 |
| 20260510013205 | 55 | 271 | 0.0 | 0.0 | 0.00 | 0.27 | 0.26 | 98 | 1035.3 |
| 20260510012704 | 55 | 271 | 0.0 | 0.0 | 0.00 | 0.27 | 0.26 | 98 | 1035.3 |
| 20260510011704 | 55 | 271 | 0.0 | 0.0 | 0.00 | 0.27 | 0.26 | 99 | 1035.1 |
| 20260510011204 | 55 | 271 | 0.0 | 0.0 | 0.00 | 0.27 | 0.26 | 99 | 1035.2 |
| 20260510010205 | 55 | 271 | 0.0 | 0.0 | 0.00 | 0.29 | 0.26 | 99 | 1035.1 |
| 20260510005704 | 55 | 273 | 0.0 | 0.0 | 0.00 | 0.29 | 0.26 | 99 | 1035.1 |
| 20260510005204 | 55 | 273 | 0.0 | 0.0 | 0.00 | 0.30 | 0.26 | 99 | 1035.2 |
| 20260510004705 | 55 | 273 | 0.0 | 0.0 | 0.00 | 0.31 | 0.26 | 99 | 1035.1 |
| 20260510004204 | 55 | 273 | 0.0 | 0.0 | 0.00 | 0.31 | 0.26 | 99 | 1035.0 |
| 20260510003704 | 55 | 273 | 0.0 | 0.0 | 0.00 | 0.32 | 0.26 | 99 | 1034.9 |
| 20260510002704 | 56 | 273 | 0.0 | 0.0 | 0.04 | 0.33 | 0.26 | 99 | 1034.8 |
| 20260510002205 | 56 | 273 | 0.0 | 0.0 | 0.05 | 0.33 | 0.26 | 99 | 1034.8 |
| 20260510001704 | 56 | 273 | 0.0 | 0.0 | 0.06 | 0.33 | 0.26 | 99 | 1034.8 |
| 20260510001205 | 56 | 273 | 0.0 | 0.0 | 0.07 | 0.34 | 0.26 | 100 | 1034.8 |
| 20260510000704 | 56 | 273 | 0.0 | 0.0 | 0.09 | 0.34 | 0.26 | 100 | 1034.7 |
| 20260510000205 | 56 | 273 | 0.0 | 0.0 | 0.14 | 0.35 | 0.26 | 100 | 1034.8 |
| 20260509235204 | 56 | 273 | 0.0 | 0.0 | 0.19 | 0.37 | 0.26 | 100 | 1034.5 |
| 20260509234705 | 56 | 273 | 0.0 | 0.0 | 0.19 | 0.37 | 0.26 | 100 | 1034.6 |
| 20260509234204 | 56 | 273 | 0.0 | 0.0 | 0.19 | 0.37 | 0.26 | 100 | 1034.7 |
| 20260509233705 | 55 | 273 | 0.0 | 0.0 | 0.19 | 0.37 | 0.26 | 100 | 1035.0 |
| 20260509233204 | 55 | 271 | 0.0 | 0.0 | 0.17 | 0.35 | 0.24 | 100 | 1035.3 |
| 20260509232205 | 56 | 289 | 0.0 | 0.0 | 0.14 | 0.32 | 0.21 | 100 | 1035.3 |
| 20260509231704 | 56 | 263 | 0.0 | 0.0 | 0.13 | 0.31 | 0.20 | 100 | 1035.2 |
| 20260509231204 | 56 | 287 | 0.0 | 0.0 | 0.12 | 0.30 | 0.19 | 100 | 1035.1 |
| 20260509230704 | 57 | 273 | 0.0 | 0.0 | 0.10 | 0.28 | 0.17 | 100 | 1035.0 |
| 20260509230205 | 60 | 327 | 0.0 | 0.0 | 0.05 | 0.23 | 0.12 | 100 | 1035.2 |
| 20260509225705 | 66 | 296 | 0.0 | 0.0 | 0.00 | 0.18 | 0.07 | 96 | 1034.7 |
| 20260509225204 | 68 | 250 | 0.0 | 0.0 | 0.00 | 0.18 | 0.07 | 93 | 1033.0 |
| 20260509224704 | 68 | 215 | 0.0 | 0.0 | 0.00 | 0.18 | 0.07 | 92 | 1032.4 |
| 20260509224205 | 68 | 206 | 0.0 | 0.0 | 0.00 | 0.18 | 0.07 | 92 | 1032.3 |
| 20260509223705 | 68 | 209 | 0.0 | 0.0 | 0.00 | 0.18 | 0.07 | 93 | 1032.3 |
| 20260509223204 | 68 | 206 | 0.0 | 0.0 | 0.00 | 0.18 | 0.07 | 93 | 1032.3 |
| 20260509222705 | 68 | 204 | 0.0 | 0.0 | 0.00 | 0.18 | 0.07 | 93 | 1032.1 |
| 20260509222204 | 69 | 191 | 0.0 | 0.0 | 0.00 | 0.18 | 0.07 | 94 | 1032.1 |
| 20260509221704 | 69 | 186 | 0.0 | 0.0 | 0.00 | 0.18 | 0.07 | 92 | 1032.0 |
| 20260509221204 | 69 | 191 | 0.0 | 0.0 | 0.00 | 0.18 | 0.07 | 93 | 1031.9 |
| 20260509215704 | 69 | 178 | 0.0 | 0.0 | 0.00 | 0.18 | 0.07 | 93 | 1031.9 |
| 20260509215205 | 69 | 199 | 0.0 | 0.0 | 0.00 | 0.18 | 0.07 | 93 | 1031.8 |
| 20260509214704 | 69 | 191 | 0.0 | 0.0 | 0.00 | 0.18 | 0.07 | 93 | 1031.8 |
| 20260509214205 | 70 | 189 | 0.0 | 0.0 | 0.00 | 0.18 | 0.07 | 92 | 1031.6 |
| 20260509213704 | 70 | 189 | 0.0 | 0.0 | 0.00 | 0.18 | 0.07 | 92 | 1031.6 |
| 20260509212704 | 70 | 215 | 0.0 | 0.0 | 0.00 | 0.18 | 0.07 | 92 | 1031.7 |
| 20260509212204 | 71 | 211 | 0.0 | 0.0 | 0.00 | 0.18 | 0.07 | 91 | 1031.8 |
| 20260509211705 | 71 | 195 | 0.0 | 0.0 | 0.00 | 0.18 | 0.07 | 93 | 1031.9 |
| 20260509211204 | 71 | 195 | 0.0 | 0.0 | 0.00 | 0.18 | 0.07 | 92 | 1031.9 |
| 20260509210704 | 71 | 185 | 0.0 | 0.0 | 0.00 | 0.18 | 0.07 | 91 | 1032.0 |
| 20260509210204 | 71 | 192 | 0.0 | 0.0 | 0.00 | 0.18 | 0.07 | 93 | 1032.1 |
| 20260509205704 | 70 | 219 | 0.0 | 0.0 | 0.00 | 0.18 | 0.07 | 93 | 1032.3 |
| 20260509205205 | 70 | 201 | 0.0 | 0.0 | 0.00 | 0.18 | 0.07 | 92 | 1032.4 |
| 20260509204205 | 69 | 194 | 0.0 | 0.0 | 0.00 | 0.18 | 0.07 | 94 | 1032.5 |
| 20260509203704 | 70 | 201 | 0.0 | 0.0 | 0.00 | 0.18 | 0.07 | 93 | 1032.6 |
| 20260509203205 | 70 | 203 | 0.0 | 0.0 | 0.00 | 0.18 | 0.07 | 92 | 1032.7 |
| 20260509202704 | 70 | 203 | 0.0 | 0.0 | 0.00 | 0.18 | 0.07 | 93 | 1032.8 |
| 20260509202205 | 69 | 204 | 0.0 | 0.0 | 0.00 | 0.18 | 0.07 | 93 | 1032.8 |
| 20260509201704 | 70 | 179 | 0.0 | 0.0 | 0.00 | 0.18 | 0.07 | 94 | 1032.8 |
| 20260509200704 | 70 | 211 | 0.0 | 0.0 | 0.00 | 0.18 | 0.07 | 93 | 1033.0 |
| 20260509195705 | 69 | 194 | 0.0 | 0.0 | 0.00 | 0.18 | 0.07 | 95 | 1033.3 |
| 20260509195204 | 69 | 190 | 0.0 | 0.0 | 0.00 | 0.18 | 0.07 | 95 | 1033.3 |
| 20260509194705 | 69 | 189 | 0.0 | 0.0 | 0.00 | 0.18 | 0.07 | 95 | 1033.3 |
| 20260509194204 | 70 | 176 | 0.0 | 0.0 | 0.00 | 0.18 | 0.07 | 95 | 1033.4 |
| 20260509193704 | 69 | 197 | 0.0 | 0.0 | 0.00 | 0.18 | 0.07 | 95 | 1033.5 |
| 20260509193204 | 69 | 188 | 0.0 | 0.0 | 0.00 | 0.18 | 0.07 | 96 | 1033.6 |
| 20260509192705 | 69 | 200 | 0.0 | 0.0 | 0.00 | 0.18 | 0.07 | 96 | 1033.7 |
| 20260509192204 | 69 | 203 | 0.0 | 0.0 | 0.00 | 0.18 | 0.07 | 95 | 1033.7 |
| 20260509191704 | 68 | 186 | 0.0 | 0.0 | 0.00 | 0.18 | 0.07 | 95 | 1033.7 |
| 20260509191204 | 68 | 200 | 0.0 | 0.0 | 0.00 | 0.18 | 0.07 | 96 | 1033.8 |
| 20260509190704 | 68 | 199 | 0.0 | 0.0 | 0.00 | 0.18 | 0.07 | 95 | 1033.8 |
| 20260509190204 | 68 | 218 | 0.0 | 0.0 | 0.00 | 0.18 | 0.07 | 96 | 1033.9 |
| 20260509185705 | 68 | 204 | 0.0 | 0.0 | 0.00 | 0.18 | 0.07 | 96 | 1033.8 |
| 20260509185204 | 69 | 208 | 0.0 | 0.0 | 0.00 | 0.18 | 0.07 | 97 | 1033.6 |
| 20260509184704 | 69 | 187 | 0.0 | 0.0 | 0.00 | 0.18 | 0.07 | 96 | 1033.9 |
| 20260509184204 | 68 | 187 | 0.0 | 0.0 | 0.00 | 0.18 | 0.07 | 98 | 1033.9 |
| 20260509183705 | 68 | 186 | 0.0 | 0.0 | 0.00 | 0.18 | 0.07 | 97 | 1033.9 |
| 20260509183204 | 68 | 184 | 0.0 | 0.0 | 0.00 | 0.18 | 0.07 | 99 | 1034.0 |
| 20260509182205 | 67 | 217 | 0.0 | 0.0 | 0.00 | 0.18 | 0.07 | 99 | 1034.1 |
| 20260509181205 | 67 | 202 | 0.0 | 0.0 | 0.00 | 0.18 | 0.07 | 99 | 1034.1 |
| 20260509180704 | 67 | 204 | 0.0 | 0.0 | 0.00 | 0.18 | 0.07 | 97 | 1034.0 |
| 20260509180205 | 68 | 207 | 0.0 | 0.0 | 0.00 | 0.18 | 0.07 | 98 | 1034.1 |
| 20260509175204 | 67 | 218 | 0.0 | 0.0 | 0.00 | 0.18 | 0.07 | 99 | 1034.1 |
| 20260509174204 | 67 | 224 | 0.0 | 0.0 | 0.00 | 0.18 | 0.07 | 97 | 1034.3 |
| 20260509173704 | 67 | 218 | 0.0 | 0.0 | 0.00 | 0.18 | 0.07 | 100 | 1034.3 |
| 20260509173204 | 66 | 175 | 0.0 | 0.0 | 0.00 | 0.18 | 0.07 | 99 | 1034.4 |
| 20260509172705 | 66 | 187 | 0.0 | 0.0 | 0.00 | 0.18 | 0.07 | 100 | 1034.5 |
| 20260509172204 | 66 | 220 | 0.0 | 0.0 | 0.00 | 0.18 | 0.07 | 100 | 1034.5 |
| 20260509171704 | 66 | 201 | 0.0 | 0.0 | 0.00 | 0.18 | 0.07 | 100 | 1034.4 |
| 20260509170705 | 65 | 254 | 0.0 | 0.0 | 0.00 | 0.18 | 0.07 | 100 | 1034.3 |
| 20260509170205 | 65 | 198 | 0.0 | 0.0 | 0.00 | 0.18 | 0.07 | 100 | 1034.4 |
| 20260509165704 | 65 | 241 | 0.0 | 0.0 | 0.00 | 0.18 | 0.07 | 99 | 1034.5 |
| 20260509165204 | 65 | 203 | 0.0 | 0.0 | 0.00 | 0.18 | 0.07 | 100 | 1034.6 |
| 20260509164704 | 65 | 205 | 0.0 | 0.0 | 0.00 | 0.18 | 0.07 | 100 | 1034.7 |
| 20260509164204 | 65 | 212 | 0.0 | 0.0 | 0.00 | 0.18 | 0.07 | 100 | 1034.7 |
| 20260509163705 | 65 | 212 | 0.0 | 0.0 | 0.00 | 0.18 | 0.07 | 100 | 1034.8 |
| 20260509163204 | 65 | 246 | 0.0 | 0.0 | 0.00 | 0.18 | 0.07 | 100 | 1034.9 |
| 20260509162704 | 64 | 204 | 0.0 | 0.0 | 0.00 | 0.18 | 0.07 | 100 | 1035.0 |
| 20260509161704 | 64 | 208 | 0.0 | 0.0 | 0.00 | 0.18 | 0.07 | 100 | 1035.3 |
| 20260509161204 | 62 | 248 | 0.0 | 0.0 | 0.00 | 0.18 | 0.07 | 99 | 1035.3 |
| 20260509160704 | 62 | 248 | 0.0 | 0.0 | 0.00 | 0.18 | 0.07 | 100 | 1035.3 |
| 20260509160204 | 62 | 242 | 0.0 | 0.0 | 0.00 | 0.18 | 0.07 | 98 | 1035.4 |
| 20260509155704 | 61 | 243 | 0.0 | 0.0 | 0.00 | 0.18 | 0.07 | 99 | 1035.3 |
| 20260509155205 | 60 | 224 | 0.0 | 0.0 | 0.00 | 0.18 | 0.07 | 98 | 1035.2 |
| 20260509154704 | 61 | 223 | 0.0 | 0.0 | 0.00 | 0.18 | 0.07 | 99 | 1035.2 |
| 20260509153704 | 60 | 211 | 0.0 | 0.0 | 0.00 | 0.18 | 0.07 | 98 | 1035.2 |
| 20260509152704 | 60 | 202 | 0.0 | 0.0 | 0.00 | 0.18 | 0.07 | 99 | 1035.3 |
| 20260509152204 | 59 | 203 | 0.0 | 0.0 | 0.00 | 0.18 | 0.07 | 99 | 1035.4 |
| 20260509151705 | 59 | 196 | 0.0 | 0.0 | 0.00 | 0.18 | 0.07 | 98 | 1035.4 |
| 20260509151204 | 59 | 188 | 0.0 | 0.0 | 0.00 | 0.18 | 0.07 | 99 | 1035.5 |
| 20260509150704 | 58 | 188 | 0.0 | 0.0 | 0.00 | 0.18 | 0.07 | 99 | 1035.6 |
| 20260509150204 | 58 | 188 | 0.0 | 0.0 | 0.00 | 0.18 | 0.07 | 99 | 1035.7 |
| 20260509145704 | 57 | 189 | 0.0 | 0.0 | 0.00 | 0.18 | 0.07 | 99 | 1035.7 |
| 20260509145205 | 57 | 189 | 0.0 | 0.0 | 0.00 | 0.18 | 0.07 | 98 | 1035.7 |
| 20260509144704 | 57 | 189 | 0.0 | 0.0 | 0.00 | 0.18 | 0.07 | 98 | 1035.7 |
| 20260509144204 | 56 | 189 | 0.0 | 0.0 | 0.00 | 0.18 | 0.07 | 98 | 1035.7 |
| 20260509143705 | 56 | 189 | 0.0 | 0.0 | 0.00 | 0.18 | 0.07 | 97 | 1035.6 |
| 20260509143204 | 56 | 189 | 0.0 | 0.0 | 0.00 | 0.18 | 0.07 | 97 | 1035.6 |
| 20260509142705 | 56 | 189 | 0.0 | 0.0 | 0.00 | 0.18 | 0.07 | 97 | 1035.5 |
| 20260509142204 | 56 | 189 | 0.0 | 0.0 | 0.00 | 0.18 | 0.07 | 96 | 1035.7 |
| 20260509141704 | 56 | 189 | 0.0 | 0.0 | 0.00 | 0.18 | 0.07 | 96 | 1035.7 |
| 20260509141204 | 55 | 189 | 0.0 | 0.0 | 0.00 | 0.18 | 0.07 | 96 | 1035.7 |
| 20260509140705 | 55 | 189 | 0.0 | 0.0 | 0.00 | 0.18 | 0.07 | 96 | 1035.6 |
| 20260509140204 | 55 | 189 | 0.0 | 0.0 | 0.00 | 0.18 | 0.07 | 96 | 1035.7 |
| 20260509135704 | 55 | 189 | 0.0 | 0.0 | 0.00 | 0.18 | 0.07 | 96 | 1035.7 |
| 20260509135205 | 55 | 189 | 0.0 | 0.0 | 0.00 | 0.18 | 0.07 | 96 | 1035.7 |
| 20260509134704 | 54 | 189 | 0.0 | 0.0 | 0.00 | 0.18 | 0.07 | 96 | 1035.7 |
| 20260509134204 | 54 | 189 | 0.0 | 0.0 | 0.00 | 0.18 | 0.07 | 96 | 1035.7 |
| 20260509133704 | 54 | 189 | 0.0 | 0.0 | 0.00 | 0.18 | 0.07 | 96 | 1035.7 |
| 20260509133204 | 54 | 189 | 0.0 | 0.0 | 0.00 | 0.18 | 0.07 | 96 | 1035.7 |
| 20260509132704 | 54 | 189 | 0.0 | 0.0 | 0.00 | 0.18 | 0.07 | 96 | 1035.7 |
| 20260509132204 | 54 | 189 | 0.0 | 0.0 | 0.00 | 0.18 | 0.07 | 96 | 1035.8 |
| 20260509131705 | 54 | 189 | 0.0 | 0.0 | 0.00 | 0.18 | 0.07 | 96 | 1035.8 |
| 20260509131204 | 54 | 189 | 0.0 | 0.0 | 0.00 | 0.18 | 0.07 | 96 | 1035.8 |
| 20260509130205 | 53 | 189 | 0.0 | 0.0 | 0.00 | 0.18 | 0.07 | 96 | 1035.9 |
| 20260509125705 | 53 | 189 | 0.0 | 0.0 | 0.00 | 0.18 | 0.07 | 96 | 1035.9 |
| 20260509125204 | 53 | 189 | 0.0 | 0.0 | 0.00 | 0.18 | 0.07 | 96 | 1035.9 |
| 20260509124704 | 53 | 189 | 0.0 | 0.0 | 0.00 | 0.18 | 0.07 | 96 | 1035.9 |
| 20260509123705 | 53 | 189 | 0.0 | 0.0 | 0.00 | 0.18 | 0.07 | 96 | 1036.0 |
| 20260509123204 | 53 | 190 | 0.0 | 0.0 | 0.00 | 0.18 | 0.07 | 96 | 1036.1 |
| 20260509122704 | 53 | 190 | 0.0 | 0.0 | 0.00 | 0.18 | 0.07 | 96 | 1036.1 |
| 20260509121704 | 53 | 190 | 0.0 | 0.0 | 0.00 | 0.18 | 0.07 | 96 | 1036.3 |
| 20260509121205 | 53 | 190 | 0.0 | 0.0 | 0.00 | 0.18 | 0.07 | 96 | 1036.3 |
| 20260509120704 | 52 | 189 | 0.0 | 0.0 | 0.00 | 0.18 | 0.07 | 96 | 1036.3 |
| 20260509120205 | 52 | 189 | 0.0 | 0.0 | 0.00 | 0.18 | 0.07 | 96 | 1036.3 |
| 20260509115704 | 52 | 189 | 0.0 | 0.0 | 0.00 | 0.18 | 0.07 | 96 | 1036.3 |
| 20260509114705 | 52 | 189 | 0.0 | 0.0 | 0.00 | 0.18 | 0.07 | 96 | 1036.3 |
| 20260509114204 | 52 | 190 | 0.0 | 0.0 | 0.00 | 0.18 | 0.07 | 96 | 1036.3 |
| 20260509113704 | 52 | 190 | 0.0 | 0.0 | 0.00 | 0.18 | 0.07 | 96 | 1036.2 |
| 20260509113204 | 52 | 189 | 0.0 | 0.0 | 0.00 | 0.18 | 0.07 | 96 | 1036.3 |
| 20260509112704 | 52 | 190 | 0.0 | 0.0 | 0.00 | 0.18 | 0.07 | 96 | 1036.2 |
| 20260509112204 | 52 | 190 | 0.0 | 0.0 | 0.00 | 0.18 | 0.07 | 96 | 1036.2 |
| 20260509111204 | 52 | 190 | 0.0 | 0.0 | 0.00 | 0.18 | 0.07 | 96 | 1036.1 |
| 20260509110704 | 52 | 190 | 0.0 | 0.0 | 0.00 | 0.18 | 0.07 | 97 | 1036.1 |
| 20260509110204 | 52 | 190 | 0.0 | 0.0 | 0.00 | 0.18 | 0.07 | 96 | 1036.1 |
| 20260509105705 | 52 | 190 | 0.0 | 0.0 | 0.00 | 0.18 | 0.07 | 96 | 1036.1 |
| 20260509105204 | 52 | 190 | 0.0 | 0.0 | 0.00 | 0.18 | 0.07 | 96 | 1036.1 |
| 20260509104704 | 52 | 190 | 0.0 | 0.0 | 0.00 | 0.18 | 0.07 | 96 | 1036.0 |
| 20260509104204 | 52 | 190 | 0.0 | 0.0 | 0.00 | 0.18 | 0.07 | 96 | 1036.1 |
| 20260509103704 | 52 | 190 | 0.0 | 0.0 | 0.00 | 0.18 | 0.07 | 96 | 1036.2 |
| 20260509103205 | 52 | 190 | 0.0 | 0.0 | 0.00 | 0.18 | 0.07 | 96 | 1036.1 |
| 20260509102704 | 52 | 190 | 0.0 | 0.0 | 0.00 | 0.18 | 0.07 | 96 | 1036.1 |
| 20260509102205 | 52 | 190 | 0.0 | 0.0 | 0.00 | 0.18 | 0.07 | 96 | 1036.0 |
| 20260509101704 | 52 | 190 | 0.0 | 0.0 | 0.00 | 0.18 | 0.07 | 96 | 1036.1 |
| 20260509100705 | 51 | 190 | 0.0 | 0.0 | 0.00 | 0.18 | 0.07 | 96 | 1036.2 |
| 20260509100204 | 51 | 190 | 0.0 | 0.0 | 0.00 | 0.18 | 0.07 | 96 | 1036.2 |
| 20260509095704 | 51 | 190 | 0.0 | 0.0 | 0.00 | 0.18 | 0.07 | 97 | 1036.2 |
| 20260509095204 | 51 | 190 | 0.0 | 0.0 | 0.00 | 0.18 | 0.07 | 96 | 1036.3 |
| 20260509094704 | 51 | 190 | 0.0 | 0.0 | 0.00 | 0.18 | 0.07 | 96 | 1036.4 |
| 20260509094205 | 51 | 190 | 0.0 | 0.0 | 0.00 | 0.18 | 0.07 | 96 | 1036.4 |
| 20260509093704 | 51 | 190 | 0.0 | 0.0 | 0.00 | 0.18 | 0.07 | 96 | 1036.5 |
| 20260509093204 | 51 | 190 | 0.0 | 0.0 | 0.00 | 0.18 | 0.07 | 96 | 1036.5 |
| 20260509092704 | 51 | 190 | 0.0 | 0.0 | 0.00 | 0.18 | 0.07 | 97 | 1036.5 |
| 20260509092204 | 51 | 190 | 0.0 | 0.0 | 0.00 | 0.18 | 0.07 | 96 | 1036.6 |
| 20260509091704 | 51 | 190 | 0.0 | 0.0 | 0.00 | 0.18 | 0.07 | 97 | 1036.6 |
| 20260509091204 | 51 | 190 | 0.0 | 0.0 | 0.00 | 0.18 | 0.07 | 97 | 1036.6 |
| 20260509090705 | 51 | 190 | 0.0 | 0.0 | 0.00 | 0.18 | 0.07 | 97 | 1036.6 |
| 20260509090204 | 51 | 190 | 0.0 | 0.0 | 0.00 | 0.18 | 0.07 | 97 | 1036.7 |
| 20260509085705 | 51 | 190 | 0.0 | 0.0 | 0.00 | 0.18 | 0.07 | 97 | 1036.7 |
| 20260509084705 | 51 | 190 | 0.0 | 0.0 | 0.00 | 0.18 | 0.07 | 97 | 1036.9 |
| 20260509083204 | 51 | 190 | 0.0 | 0.0 | 0.00 | 0.18 | 0.07 | 97 | 1036.8 |
| 20260509082204 | 51 | 190 | 0.0 | 0.0 | 0.00 | 0.18 | 0.07 | 97 | 1036.8 |
| 20260509081705 | 51 | 190 | 0.0 | 0.0 | 0.00 | 0.18 | 0.07 | 97 | 1036.8 |
| 20260509081204 | 51 | 190 | 0.0 | 0.0 | 0.00 | 0.18 | 0.07 | 97 | 1036.8 |
| 20260509080204 | 51 | 190 | 0.0 | 0.0 | 0.00 | 0.18 | 0.07 | 97 | 1036.9 |
| 20260509075705 | 51 | 190 | 0.0 | 0.0 | 0.00 | 0.18 | 0.07 | 97 | 1036.9 |
| 20260509075204 | 51 | 190 | 0.0 | 0.0 | 0.00 | 0.18 | 0.07 | 97 | 1036.9 |
| 20260509074704 | 51 | 190 | 0.0 | 0.0 | 0.00 | 0.18 | 0.07 | 97 | 1036.9 |
| 20260509073705 | 51 | 190 | 0.0 | 0.0 | 0.00 | 0.18 | 0.07 | 97 | 1037.0 |
| 20260509073204 | 51 | 191 | 0.0 | 0.0 | 0.00 | 0.18 | 0.07 | 97 | 1037.0 |
| 20260509072704 | 51 | 191 | 0.0 | 0.0 | 0.00 | 0.18 | 0.07 | 97 | 1037.0 |
| 20260509072204 | 51 | 191 | 0.0 | 0.0 | 0.00 | 0.18 | 0.07 | 97 | 1037.0 |
| 20260509071204 | 51 | 191 | 0.0 | 0.0 | 0.00 | 0.18 | 0.07 | 97 | 1037.1 |
| 20260509070704 | 51 | 191 | 0.0 | 0.0 | 0.00 | 0.18 | 0.07 | 97 | 1037.1 |
| 20260509070204 | 51 | 191 | 0.0 | 0.0 | 0.00 | 0.18 | 0.07 | 97 | 1037.2 |
| 20260509065705 | 51 | 191 | 0.0 | 0.0 | 0.01 | 0.18 | 0.07 | 97 | 1037.2 |
| 20260509065204 | 51 | 191 | 0.0 | 0.0 | 0.01 | 0.18 | 0.07 | 97 | 1037.2 |
| 20260509064204 | 51 | 191 | 0.0 | 0.0 | 0.02 | 0.18 | 0.07 | 97 | 1037.2 |
| 20260509063704 | 51 | 191 | 0.0 | 0.0 | 0.02 | 0.18 | 0.07 | 97 | 1037.2 |
| 20260509063204 | 51 | 191 | 0.0 | 0.0 | 0.02 | 0.18 | 0.07 | 97 | 1037.2 |
| 20260509062704 | 51 | 191 | 0.0 | 0.0 | 0.02 | 0.18 | 0.07 | 97 | 1037.3 |
| 20260509062204 | 51 | 191 | 0.0 | 0.0 | 0.02 | 0.18 | 0.07 | 97 | 1037.3 |
| 20260509061705 | 51 | 191 | 0.0 | 0.0 | 0.02 | 0.18 | 0.07 | 97 | 1037.3 |
| 20260509061204 | 51 | 191 | 0.0 | 0.0 | 0.02 | 0.18 | 0.07 | 97 | 1037.4 |
| 20260509060204 | 51 | 191 | 0.0 | 0.0 | 0.03 | 0.18 | 0.07 | 97 | 1037.5 |
| 20260509055204 | 51 | 191 | 0.0 | 0.0 | 0.03 | 0.17 | 0.06 | 97 | 1037.7 |
| 20260509054204 | 51 | 191 | 0.0 | 0.0 | 0.04 | 0.16 | 0.05 | 97 | 1037.8 |
| 20260509053704 | 51 | 191 | 0.0 | 0.0 | 0.04 | 0.16 | 0.05 | 97 | 1037.7 |
| 20260509053204 | 51 | 191 | 0.0 | 0.0 | 0.04 | 0.16 | 0.05 | 97 | 1037.8 |
| 20260509052704 | 51 | 191 | 0.0 | 0.0 | 0.04 | 0.16 | 0.05 | 97 | 1037.9 |
| 20260509052204 | 51 | 204 | 0.0 | 0.0 | 0.05 | 0.16 | 0.05 | 97 | 1037.9 |
| 20260509051705 | 51 | 205 | 0.0 | 0.0 | 0.05 | 0.16 | 0.05 | 97 | 1038.0 |
| 20260509051204 | 51 | 205 | 0.0 | 0.0 | 0.05 | 0.16 | 0.05 | 97 | 1038.0 |
| 20260509050704 | 51 | 205 | 0.0 | 0.0 | 0.04 | 0.15 | 0.04 | 97 | 1038.0 |
| 20260509050204 | 51 | 205 | 0.0 | 0.0 | 0.04 | 0.15 | 0.04 | 97 | 1038.1 |
| 20260509045704 | 51 | 205 | 0.0 | 0.0 | 0.04 | 0.15 | 0.04 | 97 | 1038.2 |
| 20260509044704 | 51 | 205 | 0.0 | 0.0 | 0.01 | 0.12 | 0.01 | 97 | 1038.3 |
| 20260509044204 | 51 | 205 | 0.0 | 0.0 | 0.01 | 0.12 | 0.01 | 97 | 1038.2 |
| 20260509043705 | 51 | 206 | 0.0 | 0.0 | 0.01 | 0.12 | 0.01 | 97 | 1038.2 |
| 20260509043204 | 51 | 206 | 0.0 | 0.0 | 0.01 | 0.12 | 0.01 | 97 | 1038.3 |
| 20260509042704 | 51 | 206 | 0.0 | 0.0 | 0.01 | 0.12 | 0.01 | 97 | 1038.5 |
| 20260509042205 | 51 | 206 | 0.0 | 0.0 | 0.00 | 0.11 | 0.00 | 97 | 1038.6 |
| 20260509041204 | 51 | 216 | 0.0 | 0.0 | 0.00 | 0.11 | 0.00 | 97 | 1038.8 |
| 20260509040706 | 51 | 217 | 0.0 | 0.0 | 0.00 | 0.11 | 0.00 | 97 | 1038.8 |
| 20260509040204 | 51 | 217 | 0.0 | 0.0 | 0.00 | 0.11 | 0.00 | 97 | 1038.8 |
| 20260509035704 | 51 | 217 | 0.0 | 0.0 | 0.00 | 0.11 | 0.11 | 97 | 1038.9 |
| 20260509035204 | 51 | 217 | 0.0 | 0.0 | 0.00 | 0.11 | 0.11 | 97 | 1039.0 |
| 20260509034205 | 51 | 217 | 0.0 | 0.0 | 0.00 | 0.11 | 0.11 | 97 | 1038.9 |
| 20260509033204 | 51 | 217 | 0.0 | 0.0 | 0.00 | 0.11 | 0.11 | 97 | 1038.9 |
| 20260509032704 | 51 | 217 | 0.0 | 0.0 | 0.00 | 0.11 | 0.11 | 97 | 1039.0 |
| 20260509032204 | 51 | 218 | 0.0 | 0.0 | 0.00 | 0.11 | 0.11 | 97 | 1039.0 |
| 20260509031705 | 51 | 218 | 0.0 | 0.0 | 0.00 | 0.11 | 0.11 | 97 | 1039.0 |
| 20260509031204 | 51 | 218 | 0.0 | 0.0 | 0.00 | 0.11 | 0.11 | 97 | 1039.1 |